Time;durP1;ratioP1;P1;durP2;ratioP2;P2;SDS_P1;SDS_P2;PMS_P1;PMS_P2;Temp;Humidity;BMP_temperature;BMP_pressure;BME280_temperature;BME280_humidity;BME280_pressure;Samples;Min_cycle;Max_cycle;Signal;HPM_P1;HPM_P2
2022/12/02 00:00:27;;;;;;;65.95;38.95;;;3.50;99.90;;;;;;5037150;28;20042;-73
2022/12/02 00:02:57;;;;;;;65.13;39.53;;;3.50;99.90;;;;;;5037098;28;20361;-73
2022/12/02 00:05:31;;;;;;;59.30;38.05;;;3.50;99.90;;;;;;5037187;28;20063;-72
2022/12/02 00:08:09;;;;;;;59.70;37.25;;;3.50;99.90;;;;;;5037156;28;20327;-73
2022/12/02 00:10:36;;;;;;;63.50;39.70;;;3.60;99.90;;;;;;5037176;28;20404;-73
2022/12/02 00:13:26;;;;;;;62.15;39.10;;;3.50;99.90;;;;;;5037149;28;20107;-72
2022/12/02 00:15:56;;;;;;;64.05;38.08;;;3.50;99.90;;;;;;5036737;28;20037;-72
2022/12/02 00:18:22;;;;;;;57.55;36.72;;;3.50;99.90;;;;;;5037051;28;20048;-73
2022/12/02 00:20:47;;;;;;;59.72;37.70;;;3.40;99.90;;;;;;5035351;28;20049;-72
2022/12/02 00:23:13;;;;;;;57.55;37.33;;;3.40;99.90;;;;;;5036358;28;20053;-73
2022/12/02 00:25:41;;;;;;;60.53;37.45;;;3.40;99.90;;;;;;5019207;28;20125;-72
2022/12/02 00:28:06;;;;;;;58.67;35.25;;;3.40;99.90;;;;;;5036976;28;20033;-73
2022/12/02 00:30:32;;;;;;;60.53;37.78;;;3.40;99.90;;;;;;5019058;28;20045;-73
2022/12/02 00:32:58;;;;;;;60.45;37.83;;;3.40;99.90;;;;;;5036773;28;20029;-73
2022/12/02 00:35:26;;;;;;;61.95;35.97;;;3.40;99.90;;;;;;5036679;28;20049;-73
2022/12/02 00:37:51;;;;;;;60.00;37.45;;;3.40;99.90;;;;;;5036916;28;20030;-73
2022/12/02 00:40:17;;;;;;;57.42;35.40;;;3.40;99.90;;;;;;5036496;28;20103;-72
2022/12/02 00:42:43;;;;;;;57.67;34.67;;;3.40;99.90;;;;;;5036684;28;20446;-72
2022/12/02 00:47:55;;;;;;;49.38;31.30;;;3.40;99.90;;;;;;5030003;28;20042;-73
2022/12/02 00:50:21;;;;;;;47.97;31.08;;;3.40;99.90;;;;;;5019065;28;20052;-72
2022/12/02 00:52:50;;;;;;;49.50;30.83;;;3.40;99.90;;;;;;5036262;28;20060;-72
2022/12/02 00:55:19;;;;;;;47.70;29.75;;;3.40;99.90;;;;;;5036470;28;20053;-72
2022/12/02 00:57:44;;;;;;;45.42;28.58;;;3.40;99.90;;;;;;5019206;28;20107;-73
2022/12/02 01:00:11;;;;;;;41.35;28.10;;;3.30;99.90;;;;;;5036566;28;20096;-73
2022/12/02 01:02:36;;;;;;;46.00;28.45;;;3.30;99.90;;;;;;5030783;28;20125;-73
2022/12/02 01:05:04;;;;;;;42.55;27.05;;;3.40;99.90;;;;;;5016265;28;20118;-73
2022/12/02 01:07:30;;;;;;;43.08;27.27;;;3.40;99.90;;;;;;5015259;28;20030;-72
2022/12/02 01:09:55;;;;;;;43.55;26.48;;;3.30;99.90;;;;;;5016533;28;20112;-72
2022/12/02 01:12:21;;;;;;;43.35;26.55;;;3.30;99.90;;;;;;5016327;28;20049;-73
2022/12/02 01:14:46;;;;;;;42.35;27.40;;;3.30;99.90;;;;;;5018463;28;20056;-72
2022/12/02 01:17:12;;;;;;;44.33;27.63;;;3.30;99.90;;;;;;5020109;28;20085;-73
2022/12/02 01:19:38;;;;;;;44.13;28.70;;;3.20;99.90;;;;;;5001722;28;20148;-72
2022/12/02 01:22:04;;;;;;;45.92;27.65;;;3.30;99.90;;;;;;5035603;28;20146;-72
2022/12/02 01:24:29;;;;;;;51.53;30.67;;;3.30;99.90;;;;;;5018224;28;20473;-73
2022/12/02 01:26:55;;;;;;;50.63;31.30;;;3.30;99.90;;;;;;5035845;28;20033;-72
2022/12/02 01:29:21;;;;;;;51.58;32.45;;;3.30;99.90;;;;;;5035979;28;20042;-72
2022/12/02 01:31:49;;;;;;;54.83;32.97;;;3.40;99.90;;;;;;5034999;28;20116;-73
2022/12/02 01:34:15;;;;;;;50.20;30.40;;;3.30;99.90;;;;;;5001733;28;20108;-73
2022/12/02 01:36:40;;;;;;;47.13;30.30;;;3.30;99.90;;;;;;5035632;28;20041;-73
2022/12/02 01:39:06;;;;;;;46.47;28.75;;;3.30;99.90;;;;;;5001584;28;20049;-73
2022/12/02 01:41:31;;;;;;;46.22;28.05;;;3.30;99.90;;;;;;5035558;28;20426;-72
2022/12/02 01:43:57;;;;;;;44.42;25.95;;;3.30;99.90;;;;;;5035480;28;20046;-72
2022/12/02 01:46:23;;;;;;;42.10;25.70;;;3.30;99.90;;;;;;5000638;28;20052;-72
2022/12/02 01:48:49;;;;;;;39.83;25.00;;;3.30;99.90;;;;;;5035686;28;20049;-73
2022/12/02 01:51:15;;;;;;;38.92;24.83;;;3.30;99.90;;;;;;5017728;28;20120;-73
2022/12/02 01:53:41;;;;;;;46.40;26.33;;;3.30;99.90;;;;;;5035109;28;20037;-72
2022/12/02 01:56:10;;;;;;;42.40;25.88;;;3.30;99.90;;;;;;5035285;28;20048;-73
2022/12/02 01:58:36;;;;;;;44.60;27.30;;;3.20;99.90;;;;;;5034766;28;20049;-73
2022/12/02 02:01:29;;;;;;;42.67;25.80;;;3.20;99.90;;;;;;5022525;28;20070;-73
2022/12/02 02:03:59;;;;;;;46.03;27.38;;;3.20;99.90;;;;;;5015517;28;20061;-73
2022/12/02 02:06:27;;;;;;;46.72;28.85;;;3.20;99.90;;;;;;5015419;28;20042;-73
2022/12/02 02:08:54;;;;;;;51.92;29.25;;;3.20;99.90;;;;;;4997608;28;20049;-72
2022/12/02 02:11:20;;;;;;;48.92;28.67;;;3.10;99.90;;;;;;4981758;28;20046;-73
2022/12/02 02:13:49;;;;;;;48.10;28.77;;;3.10;99.90;;;;;;5015680;28;20037;-72
2022/12/02 02:16:14;;;;;;;51.45;30.02;;;3.10;99.90;;;;;;5014964;28;20050;-72
2022/12/02 02:18:41;;;;;;;52.67;29.70;;;3.10;99.90;;;;;;5015430;28;20055;-74
2022/12/02 02:21:12;;;;;;;53.25;29.92;;;3.00;99.90;;;;;;5034797;28;20045;-73
2022/12/02 02:23:38;;;;;;;55.03;29.88;;;3.00;99.90;;;;;;5034723;28;20417;-73
2022/12/02 02:26:04;;;;;;;54.78;30.65;;;3.00;99.90;;;;;;5034844;28;20075;-73
2022/12/02 02:28:30;;;;;;;59.10;31.63;;;3.10;99.90;;;;;;5017287;28;20069;-72
2022/12/02 02:30:57;;;;;;;50.50;30.88;;;3.30;99.90;;;;;;5024346;28;20419;-73
2022/12/02 02:33:25;;;;;;;52.22;30.92;;;3.00;99.90;;;;;;5015131;28;20030;-72
2022/12/02 02:35:51;;;;;;;55.63;33.90;;;3.00;99.90;;;;;;5034360;28;20513;-73
2022/12/02 02:38:21;;;;;;;57.67;32.50;;;3.00;99.90;;;;;;5035070;28;20084;-73
2022/12/02 02:40:57;;;;;;;62.90;37.88;;;3.10;99.90;;;;;;5034694;28;20056;-73
2022/12/02 02:43:25;;;;;;;60.75;34.78;;;3.10;99.90;;;;;;5018640;28;20504;-72
2022/12/02 02:45:53;;;;;;;65.35;39.92;;;3.00;99.90;;;;;;5009486;28;20038;-72
2022/12/02 02:48:19;;;;;;;61.33;35.78;;;3.00;99.90;;;;;;5001498;28;20476;-73
2022/12/02 02:50:47;;;;;;;62.00;37.55;;;3.00;99.90;;;;;;5018883;28;20117;-72
2022/12/02 02:53:16;;;;;;;63.47;40.75;;;3.00;99.90;;;;;;5018972;28;20405;-72
2022/12/02 02:55:44;;;;;;;60.10;38.90;;;3.00;99.90;;;;;;5029460;28;20070;-72
2022/12/02 02:58:20;;;;;;;64.28;41.25;;;3.00;99.90;;;;;;5018612;28;20417;-72
2022/12/02 03:00:59;;;;;;;60.38;36.90;;;2.90;99.90;;;;;;5018755;28;20045;-72
2022/12/02 03:03:32;;;;;;;59.13;37.08;;;2.90;99.90;;;;;;5001082;28;20046;-72
2022/12/02 03:05:59;;;;;;;58.42;34.95;;;2.90;99.90;;;;;;5001924;28;20457;-72
2022/12/02 03:08:27;;;;;;;61.20;36.63;;;2.90;99.90;;;;;;5018203;28;20121;-73
2022/12/02 03:10:55;;;;;;;55.30;34.78;;;2.90;99.90;;;;;;5018162;28;20034;-72
2022/12/02 03:13:21;;;;;;;54.97;33.58;;;2.90;99.90;;;;;;5018120;28;20049;-72
2022/12/02 03:15:48;;;;;;;53.30;33.13;;;2.90;99.90;;;;;;5038255;28;20038;-73
2022/12/02 03:18:14;;;;;;;55.88;33.88;;;2.90;99.90;;;;;;5020746;28;20438;-71
2022/12/02 03:20:40;;;;;;;53.65;32.63;;;2.90;99.90;;;;;;5037850;28;20462;-72
2022/12/02 03:23:05;;;;;;;55.67;33.70;;;2.90;99.90;;;;;;5037312;28;20046;-72
2022/12/02 03:25:31;;;;;;;55.28;33.05;;;2.90;99.90;;;;;;5018283;28;20037;-72
2022/12/02 03:27:57;;;;;;;55.45;33.80;;;2.80;99.90;;;;;;5038254;28;20043;-73
2022/12/02 03:30:23;;;;;;;57.55;34.03;;;2.80;99.90;;;;;;5038083;28;20409;-72
2022/12/02 03:32:49;;;;;;;58.00;33.38;;;2.80;99.90;;;;;;5037739;28;20033;-71
2022/12/02 03:35:15;;;;;;;54.72;32.25;;;2.80;99.90;;;;;;5038408;28;20145;-72
2022/12/02 03:37:40;;;;;;;59.47;34.60;;;2.80;99.90;;;;;;5020437;28;20473;-72
2022/12/02 03:40:07;;;;;;;53.72;32.20;;;2.80;99.90;;;;;;5001305;28;20497;-72
2022/12/02 03:42:33;;;;;;;52.70;30.80;;;2.80;99.90;;;;;;5000660;28;20034;-72
2022/12/02 03:45:00;;;;;;;56.13;33.15;;;2.80;99.90;;;;;;5017724;28;20042;-73
2022/12/02 03:47:26;;;;;;;56.72;33.40;;;2.80;99.90;;;;;;5017743;28;20045;-72
2022/12/02 03:49:52;;;;;;;50.65;31.10;;;2.80;99.90;;;;;;5000408;28;20064;-72
2022/12/02 03:52:17;;;;;;;49.80;30.70;;;2.80;99.90;;;;;;5017720;28;20092;-71
2022/12/02 03:54:43;;;;;;;51.13;31.05;;;2.80;99.90;;;;;;5017435;28;20076;-73
2022/12/02 03:57:09;;;;;;;53.47;31.45;;;2.80;99.90;;;;;;5017278;28;20041;-72
2022/12/02 03:59:34;;;;;;;51.78;30.85;;;2.80;99.90;;;;;;5018236;28;20053;-72
2022/12/02 04:02:00;;;;;;;52.67;30.48;;;2.80;99.90;;;;;;5017453;28;20147;-72
2022/12/02 04:04:26;;;;;;;55.75;32.55;;;2.80;99.90;;;;;;5017489;28;20132;-72
2022/12/02 04:06:51;;;;;;;51.80;31.25;;;2.80;99.90;;;;;;5017330;28;20046;-72
2022/12/02 04:09:17;;;;;;;51.50;31.13;;;2.80;99.90;;;;;;5017069;28;20046;-73
2022/12/02 04:11:42;;;;;;;56.30;33.15;;;2.80;99.90;;;;;;5017784;28;20045;-72
2022/12/02 04:14:08;;;;;;;57.78;33.75;;;3.20;99.90;;;;;;5000324;28;20060;-73
2022/12/02 04:16:34;;;;;;;52.90;32.17;;;2.70;99.90;;;;;;5017403;28;20049;-73
2022/12/02 04:18:59;;;;;;;58.78;33.35;;;2.70;99.90;;;;;;5020026;28;20077;-72
2022/12/02 04:21:25;;;;;;;61.35;34.55;;;3.40;99.90;;;;;;5037043;28;20122;-73
2022/12/02 04:23:53;;;;;;;55.53;32.22;;;2.70;99.90;;;;;;5018951;28;20140;-72
2022/12/02 04:26:19;;;;;;;59.80;34.42;;;2.70;99.90;;;;;;5037032;28;20041;-72
2022/12/02 04:28:45;;;;;;;60.47;34.10;;;2.70;99.90;;;;;;5019346;28;20129;-73
2022/12/02 04:31:13;;;;;;;66.25;35.33;;;2.70;99.90;;;;;;5036763;28;20048;-72
2022/12/02 04:33:39;;;;;;;64.93;36.38;;;2.70;99.90;;;;;;5036485;28;20430;-72
2022/12/02 04:36:05;;;;;;;60.47;34.70;;;2.70;99.90;;;;;;5037055;28;20038;-73
2022/12/02 04:38:30;;;;;;;58.72;35.47;;;2.70;99.90;;;;;;5022376;28;20352;-72
2022/12/02 04:40:56;;;;;;;64.25;34.83;;;2.60;99.90;;;;;;5017089;28;20038;-72
2022/12/02 04:43:22;;;;;;;68.65;35.67;;;2.60;99.90;;;;;;4999387;28;20042;-72
2022/12/02 04:45:47;;;;;;;63.83;34.67;;;2.60;99.90;;;;;;5016266;28;20045;-72
2022/12/02 04:48:13;;;;;;;63.25;36.15;;;2.60;99.90;;;;;;5000421;28;20129;-73
2022/12/02 04:50:38;;;;;;;61.75;35.70;;;2.60;99.90;;;;;;5016663;28;20092;-72
2022/12/02 04:53:04;;;;;;;68.53;35.97;;;2.60;99.90;;;;;;4999229;28;20446;-71
2022/12/02 04:55:30;;;;;;;68.47;36.10;;;2.60;99.90;;;;;;5018860;28;20040;-69
2022/12/02 04:57:55;;;;;;;61.88;34.83;;;2.60;99.90;;;;;;5029782;28;20116;-72
2022/12/02 05:00:27;;;;;;;69.80;35.75;;;2.60;99.90;;;;;;4999268;28;20033;-71
2022/12/02 05:02:53;;;;;;;67.07;36.55;;;2.60;99.90;;;;;;5016245;28;20077;-72
2022/12/02 05:05:19;;;;;;;65.65;36.78;;;2.60;99.90;;;;;;4998603;28;20062;-71
2022/12/02 05:07:44;;;;;;;70.60;37.75;;;2.60;99.90;;;;;;4998932;28;20045;-72
2022/12/02 05:10:10;;;;;;;65.70;37.53;;;2.50;99.90;;;;;;5016350;28;20042;-72
2022/12/02 05:12:35;;;;;;;65.85;37.17;;;2.50;99.90;;;;;;5014174;28;20053;-73
2022/12/02 05:15:01;;;;;;;66.97;38.55;;;2.50;99.90;;;;;;5012455;28;20443;-72
2022/12/02 05:17:27;;;;;;;67.70;36.33;;;2.50;99.90;;;;;;5016033;28;20073;-73
2022/12/02 05:19:52;;;;;;;68.43;38.78;;;2.50;99.90;;;;;;5016156;28;20038;-73
2022/12/02 05:22:18;;;;;;;68.88;39.22;;;2.50;99.90;;;;;;5015746;28;20056;-73
2022/12/02 05:24:46;;;;;;;73.80;38.25;;;2.50;99.90;;;;;;5015899;28;20474;-72
2022/12/02 05:27:11;;;;;;;71.03;38.58;;;2.50;99.90;;;;;;5014383;28;20030;-72
2022/12/02 05:29:37;;;;;;;72.47;39.10;;;2.50;99.90;;;;;;5014670;28;20379;-72
2022/12/02 05:32:03;;;;;;;74.15;39.70;;;2.50;99.90;;;;;;4998936;28;20058;-72
2022/12/02 05:34:28;;;;;;;72.80;38.20;;;2.50;99.90;;;;;;5000795;28;20044;-73
2022/12/02 05:36:57;;;;;;;76.05;39.40;;;2.50;99.90;;;;;;5009723;28;20112;-74
2022/12/02 05:39:22;;;;;;;69.97;39.15;;;2.50;99.90;;;;;;5015825;28;20048;-73
2022/12/02 05:41:48;;;;;;;72.15;38.80;;;2.50;99.90;;;;;;5015696;28;20045;-73
2022/12/02 05:44:20;;;;;;;76.88;40.28;;;2.50;99.90;;;;;;5015373;28;20050;-72
2022/12/02 05:46:45;;;;;;;77.50;40.95;;;2.50;99.90;;;;;;4998315;28;20038;-73
2022/12/02 05:49:19;;;;;;;82.78;44.58;;;2.50;99.90;;;;;;5015634;28;20052;-73
2022/12/02 05:51:55;;;;;;;87.63;43.20;;;2.60;99.90;;;;;;5015406;28;20464;-73
2022/12/02 05:54:21;;;;;;;74.78;40.83;;;2.60;99.90;;;;;;5015516;28;20034;-73
2022/12/02 05:56:47;;;;;;;79.28;43.25;;;2.60;99.90;;;;;;4998324;28;20414;-72
2022/12/02 05:59:18;;;;;;;82.72;44.03;;;2.60;99.90;;;;;;5015308;28;20044;-73
2022/12/02 06:01:50;;;;;;;79.68;43.70;;;2.70;99.90;;;;;;5015218;28;20049;-73
2022/12/02 06:04:19;;;;;;;75.47;39.25;;;2.60;99.90;;;;;;5015405;28;20350;-72
2022/12/02 06:06:45;;;;;;;74.18;39.38;;;2.70;99.90;;;;;;4981869;28;20042;-74
2022/12/02 06:09:19;;;;;;;76.43;41.05;;;2.80;99.90;;;;;;5014488;28;20108;-73
2022/12/02 06:11:49;;;;;;;75.35;39.35;;;2.90;99.90;;;;;;4994317;28;20042;-72
2022/12/02 06:14:19;;;;;;;75.78;41.55;;;2.70;99.90;;;;;;5015267;28;20336;-71
2022/12/02 06:16:57;;;;;;;70.43;38.22;;;2.70;99.90;;;;;;5014989;28;20052;-71
2022/12/02 06:19:39;;;;;;;78.07;39.05;;;2.70;99.90;;;;;;4997460;28;20034;-71
2022/12/02 06:22:13;;;;;;;81.78;41.75;;;2.70;99.90;;;;;;5013746;28;20049;-71
2022/12/02 06:24:38;;;;;;;78.35;45.05;;;2.70;99.90;;;;;;5014441;28;20065;-71
2022/12/02 06:27:04;;;;;;;83.82;44.22;;;2.80;99.90;;;;;;5014442;28;20033;-71
2022/12/02 06:29:31;;;;;;;85.40;43.72;;;2.80;99.90;;;;;;5014398;28;20529;-73
2022/12/02 06:31:59;;;;;;;79.82;42.40;;;2.70;99.90;;;;;;4995404;28;20038;-73
2022/12/02 06:34:42;;;;;;;77.22;40.78;;;2.80;99.90;;;;;;5005787;28;20398;-74
2022/12/02 06:37:13;;;;;;;75.03;39.90;;;2.80;99.90;;;;;;5014370;28;20105;-73
2022/12/02 06:39:41;;;;;;;79.35;41.00;;;2.80;99.90;;;;;;4997873;28;20057;-71
2022/12/02 06:42:19;;;;;;;78.07;39.67;;;2.70;99.90;;;;;;5014327;28;20045;-70
2022/12/02 06:45:03;;;;;;;79.05;41.78;;;3.10;99.90;;;;;;5014505;28;20147;-73
2022/12/02 06:47:31;;;;;;;80.05;39.95;;;2.80;99.90;;;;;;4973161;28;20070;-72
2022/12/02 06:50:03;;;;;;;74.63;40.15;;;2.80;99.90;;;;;;4978683;28;20366;-74
2022/12/02 06:52:33;;;;;;;85.97;41.03;;;2.80;99.90;;;;;;4978960;28;20042;-73
2022/12/02 06:54:59;;;;;;;83.03;41.78;;;2.80;99.90;;;;;;4998795;28;20056;-71
2022/12/02 06:57:30;;;;;;;86.40;41.30;;;2.80;99.90;;;;;;5014404;28;20074;-71
2022/12/02 06:59:56;;;;;;;88.05;42.92;;;2.80;99.90;;;;;;5014650;28;20072;-71
2022/12/02 07:02:30;;;;;;;80.82;41.80;;;2.80;99.90;;;;;;4997068;28;20450;-73
2022/12/02 07:04:57;;;;;;;84.18;41.03;;;2.90;99.90;;;;;;4996998;28;20042;-72
2022/12/02 07:07:28;;;;;;;84.82;41.72;;;2.80;99.90;;;;;;5014064;28;20085;-73
2022/12/02 07:09:58;;;;;;;88.90;43.05;;;2.90;99.90;;;;;;5010042;28;20117;-73
2022/12/02 07:12:42;;;;;;;81.55;41.65;;;2.90;99.90;;;;;;5014151;28;20053;-73
2022/12/02 07:15:29;;;;;;;78.18;38.85;;;2.90;99.90;;;;;;5014309;28;20501;-74
2022/12/02 07:18:13;;;;;;;82.18;39.17;;;2.90;99.90;;;;;;5013811;28;20042;-73
2022/12/02 07:20:41;;;;;;;79.65;40.15;;;2.90;99.90;;;;;;4996867;28;20117;-73
2022/12/02 07:23:13;;;;;;;77.78;38.78;;;3.10;99.90;;;;;;5013791;28;20054;-73
2022/12/02 07:25:50;;;;;;;82.57;40.40;;;3.00;99.90;;;;;;4996692;28;20382;-73
2022/12/02 07:28:21;;;;;;;76.20;39.13;;;2.90;99.90;;;;;;4996542;28;20365;-73
2022/12/02 07:31:11;;;;;;;71.82;38.92;;;2.90;99.90;;;;;;5017838;28;20370;-72
2022/12/02 07:33:37;;;;;;;74.57;39.22;;;2.90;99.90;;;;;;5000287;28;20057;-73
2022/12/02 07:36:03;;;;;;;77.90;39.63;;;2.90;99.90;;;;;;5017563;28;20038;-73
2022/12/02 07:38:28;;;;;;;72.80;36.70;;;2.90;99.90;;;;;;5018273;28;20365;-73
2022/12/02 07:40:56;;;;;;;70.22;36.75;;;2.90;99.90;;;;;;5017810;28;20053;-71
2022/12/02 07:43:22;;;;;;;74.63;37.20;;;2.90;99.90;;;;;;5017823;28;20133;-71
2022/12/02 07:45:48;;;;;;;73.85;38.15;;;2.90;99.90;;;;;;5017677;28;20080;-74
2022/12/02 07:48:13;;;;;;;80.82;38.75;;;2.80;99.90;;;;;;5017735;28;20125;-71
2022/12/02 07:50:39;;;;;;;74.40;36.65;;;2.80;99.90;;;;;;4999904;28;20049;-72
2022/12/02 07:53:04;;;;;;;81.40;38.30;;;2.80;99.90;;;;;;5000386;28;20472;-71
2022/12/02 07:55:30;;;;;;;77.43;37.13;;;2.80;99.90;;;;;;5015597;28;20513;-71
2022/12/02 07:57:56;;;;;;;70.82;36.92;;;2.80;99.90;;;;;;5016992;28;20131;-71
2022/12/02 08:00:23;;;;;;;80.30;38.10;;;2.70;99.90;;;;;;5017284;28;20522;-71
2022/12/02 08:02:48;;;;;;;89.10;37.88;;;2.70;99.90;;;;;;5017482;28;20049;-74
2022/12/02 08:05:14;;;;;;;78.45;37.20;;;2.70;99.90;;;;;;4999938;28;20104;-73
2022/12/02 08:07:41;;;;;;;83.28;39.92;;;2.70;99.90;;;;;;5017103;28;20060;-71
2022/12/02 08:10:07;;;;;;;78.35;36.28;;;2.70;99.90;;;;;;5017075;28;20394;-71
2022/12/02 08:12:33;;;;;;;78.00;37.22;;;2.70;99.90;;;;;;5016688;28;20037;-71
2022/12/02 08:14:59;;;;;;;78.85;36.50;;;2.70;99.90;;;;;;5017492;28;20339;-70
2022/12/02 08:17:27;;;;;;;73.75;35.65;;;2.70;99.90;;;;;;5016921;28;20042;-71
2022/12/02 08:19:53;;;;;;;70.60;35.83;;;2.70;99.90;;;;;;4982467;28;20454;-71
2022/12/02 08:22:18;;;;;;;79.05;37.78;;;2.70;99.90;;;;;;4998366;28;20042;-72
2022/12/02 08:24:44;;;;;;;76.88;37.03;;;2.70;99.90;;;;;;4987152;28;20049;-70
2022/12/02 08:27:10;;;;;;;77.00;35.78;;;2.60;99.90;;;;;;5016796;28;20038;-72
2022/12/02 08:29:35;;;;;;;69.45;34.85;;;2.60;99.90;;;;;;4999162;28;20469;-72
2022/12/02 08:32:01;;;;;;;66.68;33.92;;;2.70;99.90;;;;;;5016445;28;20092;-70
2022/12/02 08:34:27;;;;;;;72.50;34.75;;;2.70;99.90;;;;;;5016366;28;20493;-70
2022/12/02 08:36:53;;;;;;;70.70;34.20;;;2.60;99.90;;;;;;5016105;28;20117;-70
2022/12/02 08:39:18;;;;;;;68.00;34.03;;;2.70;99.90;;;;;;5016098;28;20477;-70
2022/12/02 08:41:47;;;;;;;81.05;32.60;;;2.70;99.90;;;;;;5014911;28;20094;-70
2022/12/02 08:44:13;;;;;;;68.78;31.92;;;2.60;99.90;;;;;;5016617;28;20052;-71
2022/12/02 08:46:39;;;;;;;64.63;32.55;;;2.70;99.90;;;;;;5016686;28;20038;-70
2022/12/02 08:49:07;;;;;;;62.40;32.25;;;2.60;99.90;;;;;;5016800;28;20105;-70
2022/12/02 08:51:33;;;;;;;58.80;30.73;;;2.60;99.90;;;;;;5016735;28;20038;-70
2022/12/02 08:53:59;;;;;;;59.55;30.27;;;2.70;99.90;;;;;;5016682;28;20121;-70
2022/12/02 08:56:25;;;;;;;58.38;30.35;;;2.60;99.90;;;;;;5015870;28;20446;-71
2022/12/02 08:58:51;;;;;;;58.65;30.75;;;2.60;99.90;;;;;;5016103;28;20121;-70
2022/12/02 09:01:17;;;;;;;58.88;32.45;;;2.60;99.90;;;;;;5016416;28;20064;-71
2022/12/02 09:03:42;;;;;;;59.40;29.42;;;2.60;99.90;;;;;;5016327;28;20367;-71
2022/12/02 09:06:08;;;;;;;65.00;33.72;;;2.60;99.90;;;;;;5016479;28;20088;-70
2022/12/02 09:08:33;;;;;;;59.83;30.63;;;2.60;99.90;;;;;;5016396;28;20100;-72
2022/12/02 09:10:59;;;;;;;62.90;32.88;;;2.50;99.90;;;;;;5015896;28;20061;-70
2022/12/02 09:13:27;;;;;;;61.75;30.23;;;2.50;99.90;;;;;;5015460;28;20433;-71
2022/12/02 09:15:53;;;;;;;66.95;32.70;;;2.50;99.90;;;;;;4998275;28;20128;-71
2022/12/02 09:18:18;;;;;;;66.80;31.85;;;2.60;99.90;;;;;;4998347;28;20121;-71
2022/12/02 09:20:44;;;;;;;65.18;32.40;;;2.80;99.90;;;;;;5015921;28;20030;-71
2022/12/02 09:23:09;;;;;;;73.07;34.40;;;2.60;99.90;;;;;;5015462;28;20481;-72
2022/12/02 09:25:35;;;;;;;72.90;34.42;;;2.70;99.90;;;;;;5015834;28;20080;-71
2022/12/02 09:28:01;;;;;;;69.15;32.70;;;2.70;99.90;;;;;;5015633;28;20100;-72
2022/12/02 09:30:27;;;;;;;69.40;32.13;;;2.60;99.90;;;;;;4998228;28;20041;-71
2022/12/02 09:32:52;;;;;;;70.78;33.42;;;2.70;99.90;;;;;;5015444;28;20394;-71
2022/12/02 09:35:18;;;;;;;71.45;34.20;;;2.70;99.90;;;;;;4997960;28;20053;-71
2022/12/02 09:37:43;;;;;;;74.78;33.72;;;2.70;99.90;;;;;;5015329;28;20095;-72
2022/12/02 09:40:09;;;;;;;71.38;34.10;;;2.70;99.90;;;;;;5015288;28;20092;-71
2022/12/02 09:42:35;;;;;;;68.53;34.45;;;2.80;99.90;;;;;;5015163;28;20038;-71
2022/12/02 09:45:01;;;;;;;74.85;36.35;;;2.90;99.90;;;;;;5015218;28;20113;-70
2022/12/02 09:47:28;;;;;;;77.28;40.70;;;2.90;99.90;;;;;;4997631;28;20458;-69
2022/12/02 09:49:56;;;;;;;72.05;34.67;;;2.90;99.90;;;;;;5014776;28;20054;-74
2022/12/02 09:52:28;;;;;;;70.95;34.97;;;3.00;99.90;;;;;;5015144;28;20061;-71
2022/12/02 09:55:00;;;;;;;67.63;36.30;;;3.00;99.90;;;;;;5015148;28;20038;-72
2022/12/02 09:57:30;;;;;;;73.15;37.90;;;3.00;99.90;;;;;;5014815;28;20153;-71
2022/12/02 09:59:59;;;;;;;74.82;38.00;;;3.00;99.90;;;;;;5015126;28;20060;-71
2022/12/02 10:02:41;;;;;;;70.72;37.42;;;3.00;99.90;;;;;;5015329;28;20038;-73
2022/12/02 10:05:22;;;;;;;66.88;36.30;;;3.00;99.90;;;;;;5014954;28;20505;-72
2022/12/02 10:07:50;;;;;;;71.15;36.00;;;2.90;99.90;;;;;;4995351;28;20042;-71
2022/12/02 10:10:19;;;;;;;75.68;38.13;;;2.90;99.90;;;;;;4995554;28;20042;-72
2022/12/02 10:12:45;;;;;;;67.47;36.72;;;2.80;99.90;;;;;;4995724;28;20081;-72
2022/12/02 10:15:13;;;;;;;70.68;37.13;;;3.00;99.90;;;;;;4978796;28;20064;-71
2022/12/02 10:17:39;;;;;;;70.53;37.20;;;2.90;99.90;;;;;;4977941;28;20088;-71
2022/12/02 10:20:06;;;;;;;68.55;36.38;;;2.90;99.90;;;;;;4994617;28;20046;-71
2022/12/02 10:22:31;;;;;;;69.40;36.97;;;2.80;99.90;;;;;;4997300;28;20068;-71
2022/12/02 10:24:57;;;;;;;74.47;38.30;;;2.90;99.90;;;;;;5014061;28;20038;-71
2022/12/02 10:27:29;;;;;;;68.55;36.72;;;2.90;99.90;;;;;;5014810;28;20424;-72
2022/12/02 10:30:24;;;;;;;70.75;37.70;;;3.10;99.90;;;;;;5014782;28;20064;-72
2022/12/02 10:33:00;;;;;;;80.00;38.25;;;2.80;99.90;;;;;;4997157;28;20054;-72
2022/12/02 10:35:28;;;;;;;74.53;37.83;;;2.80;99.90;;;;;;5014774;28;20069;-73
2022/12/02 10:37:54;;;;;;;80.38;39.08;;;2.80;99.90;;;;;;5015000;28;20052;-72
2022/12/02 10:40:26;;;;;;;78.95;38.55;;;2.90;99.90;;;;;;4997229;28;20401;-72
2022/12/02 10:43:09;;;;;;;74.95;39.97;;;2.90;99.90;;;;;;4997156;28;20038;-72
2022/12/02 10:45:35;;;;;;;73.95;38.28;;;3.60;99.90;;;;;;5014571;28;20042;-71
2022/12/02 10:48:16;;;;;;;71.65;38.30;;;2.90;99.90;;;;;;5014731;28;20038;-71
2022/12/02 10:50:45;;;;;;;80.82;40.33;;;2.90;99.90;;;;;;4995495;28;20070;-71
2022/12/02 10:53:15;;;;;;;75.68;39.70;;;2.90;99.90;;;;;;5007579;28;20100;-71
2022/12/02 10:55:40;;;;;;;75.40;39.97;;;3.30;99.90;;;;;;4978812;28;20366;-72
2022/12/02 10:58:14;;;;;;;73.68;40.00;;;2.80;99.90;;;;;;5013540;28;20046;-71
2022/12/02 11:00:40;;;;;;;80.40;39.78;;;2.80;99.90;;;;;;5014928;28;20365;-71
2022/12/02 11:03:06;;;;;;;77.68;40.72;;;2.80;99.90;;;;;;5014581;28;20042;-70
2022/12/02 11:05:37;;;;;;;78.43;40.20;;;2.80;99.90;;;;;;5000265;28;20443;-71
2022/12/02 11:08:15;;;;;;;73.90;39.47;;;3.20;99.90;;;;;;5018114;28;20557;-71
2022/12/02 11:10:44;;;;;;;75.47;40.30;;;2.80;99.90;;;;;;5018552;28;20506;-70
2022/12/02 11:13:12;;;;;;;74.20;41.28;;;2.80;99.90;;;;;;5000520;28;20048;-70
2022/12/02 11:15:50;;;;;;;77.90;41.72;;;2.80;99.90;;;;;;5018230;28;20370;-70
2022/12/02 11:18:25;;;;;;;78.50;42.80;;;2.80;99.90;;;;;;5020239;28;20046;-69
2022/12/02 11:21:34;;;;;;;67.93;40.40;;;2.80;99.90;;;;;;5020236;28;20350;-71
2022/12/02 11:24:21;;;;;;;73.88;42.72;;;2.80;99.90;;;;;;5017256;28;20056;-71
2022/12/02 11:26:59;;;;;;;69.32;40.15;;;2.80;99.90;;;;;;5017474;28;20034;-71
2022/12/02 11:29:39;;;;;;;78.68;43.95;;;2.80;99.90;;;;;;5017824;28;20034;-71
2022/12/02 11:32:23;;;;;;;70.15;41.72;;;2.90;99.90;;;;;;4983797;28;20048;-71
2022/12/02 11:34:57;;;;;;;72.60;41.42;;;2.90;99.90;;;;;;5017494;28;20096;-72
2022/12/02 11:37:28;;;;;;;70.95;41.55;;;3.00;99.90;;;;;;5002320;28;20105;-71
2022/12/02 11:39:59;;;;;;;74.05;41.72;;;3.00;99.90;;;;;;5017559;28;20060;-72
2022/12/02 11:42:28;;;;;;;70.20;42.80;;;3.00;99.90;;;;;;5000574;28;20402;-72
2022/12/02 11:45:15;;;;;;;69.15;41.17;;;3.00;99.90;;;;;;5017684;28;20092;-73
2022/12/02 11:48:00;;;;;;;73.72;41.75;;;3.00;99.90;;;;;;5017435;28;20081;-71
2022/12/02 11:50:38;;;;;;;68.53;42.03;;;3.00;99.90;;;;;;5017869;28;20038;-72
2022/12/02 11:53:14;;;;;;;69.95;43.42;;;2.90;99.90;;;;;;5016937;28;20061;-71
2022/12/02 11:55:48;;;;;;;66.05;41.95;;;2.90;99.90;;;;;;5017329;28;20046;-71
2022/12/02 11:58:31;;;;;;;66.13;42.92;;;2.90;99.90;;;;;;5017556;28;20058;-72
2022/12/02 12:01:12;;;;;;;68.53;42.78;;;3.00;99.90;;;;;;5017550;28;20447;-71
2022/12/02 12:03:43;;;;;;;68.47;41.95;;;2.90;99.90;;;;;;5016809;28;20084;-71
2022/12/02 12:06:10;;;;;;;69.63;43.08;;;3.00;99.90;;;;;;5016950;28;20084;-71
2022/12/02 12:08:37;;;;;;;70.85;43.85;;;3.00;99.90;;;;;;5017208;28;20042;-71
2022/12/02 12:11:23;;;;;;;71.63;42.08;;;3.00;99.90;;;;;;5017240;28;20052;-70
2022/12/02 12:14:17;;;;;;;68.30;42.75;;;3.00;99.90;;;;;;5017395;28;20141;-71
2022/12/02 12:16:46;;;;;;;66.57;43.50;;;3.00;99.90;;;;;;5016971;28;20048;-71
2022/12/02 12:19:11;;;;;;;65.80;42.70;;;3.00;99.90;;;;;;5017112;28;20100;-72
2022/12/02 12:21:45;;;;;;;67.10;43.38;;;3.00;99.90;;;;;;5006786;28;20054;-71
2022/12/02 12:24:21;;;;;;;65.20;43.30;;;3.00;99.90;;;;;;5036741;28;20056;-71
2022/12/02 12:26:57;;;;;;;68.03;43.38;;;3.00;99.90;;;;;;5036758;28;20057;-71
2022/12/02 12:29:26;;;;;;;67.00;42.72;;;3.00;99.90;;;;;;5036946;28;20049;-71
2022/12/02 12:31:52;;;;;;;66.63;44.53;;;3.00;99.90;;;;;;5002652;28;20116;-71
2022/12/02 12:34:17;;;;;;;66.43;43.78;;;3.10;99.90;;;;;;5019038;28;20056;-71
2022/12/02 12:36:44;;;;;;;66.80;44.13;;;3.10;99.90;;;;;;5033174;28;20045;-71
2022/12/02 12:39:11;;;;;;;68.15;44.03;;;3.10;99.90;;;;;;5016512;28;20057;-70
2022/12/02 12:41:37;;;;;;;68.18;46.10;;;3.10;99.90;;;;;;5016959;28;20054;-71
2022/12/02 12:44:03;;;;;;;67.20;45.08;;;3.10;99.90;;;;;;5016420;28;20497;-71
2022/12/02 12:46:29;;;;;;;65.32;43.97;;;3.10;99.90;;;;;;5016780;28;20050;-72